KFHU/FHU METAR and TAF weather

Enter ICAO airport designator
Station Type Date Time Source
KFHU METAR 2021/04/13 07:58 UTC NOAA

KFHU 130758Z AUTO 19005KT 10SM CLR 17/02 A2995 RMK AO2 SLP072 T01720024


Station Type Date Time Source
KFHU Decoded METAR 2021/04/13 07:58 UTC NOAA

Fort Huachuca, Libby AAF Ft Huachuca, AZ, United States (KFHU) 46-98N 110-20W
Apr 13, 2021 - 03:58 AM EDT / 2021.04.13 0758 UTC
Wind: from the S (190 degrees) at 6 MPH (5 KT):0
Visibility: 10 mile(s):0
Sky conditions: clear
Temperature: 63.0 F (17.2 C)
Dew Point: 36.3 F (2.4 C)
Relative Humidity: 37%
Pressure (altimeter): 29.95 in. Hg (1014 hPa)
ob: KFHU 130758Z AUTO 19005KT 10SM CLR 17/02 A2995 RMK AO2 SLP072 T01720024
cycle: 8

Station Type Date Time Source
KFHU TAF 2021/04/13 06:19 UTC NOAA

TAF KFHU 130600Z 1306/1412 20012KT 9999 SKC QNH2994INS
TEMPO 1306/1308 20012G17KT 510003
BECMG 1308/1309 17009KT 9999 SKC QNH2993INS
BECMG 1312/1313 17010G16KT 9999 SKC 510002 QNH2995INS
BECMG 1316/1317 20014G23KT 9999 SKC 520004 QNH2994INS
BECMG 1318/1319 22015G27KT 9999 FEW070 520004 QNH2988INS
TEMPO 1320/1324 22018G32KT 530005
BECMG 1400/1401 22014G26KT 9999 SKC 520003 QNH2990INS
BECMG 1401/1402 22011G16KT 9999 FEW250 510007 QNH2992INS
BECMG 1402/1403 23009KT 9999 SCT260 510102 QNH2995INS TX27/1321Z TN11/1312Z

Example: see airport list